createdAt,value
2018-07-10T00:00:42.879Z,60.96
2018-07-10T00:03:24.939Z,60.63
2018-07-10T00:08:11.126Z,60.79
2018-07-10T00:11:26.005Z,61.06
2018-07-10T00:13:55.760Z,61.44
2018-07-10T00:16:25.504Z,60.38
2018-07-10T00:18:56.100Z,61.84
2018-07-10T00:21:25.929Z,61.32
2018-07-10T00:23:55.617Z,60.87
2018-07-10T00:26:25.352Z,61.64
2018-07-10T00:28:55.119Z,61.95
2018-07-10T00:31:24.865Z,61.39
2018-07-10T00:33:54.611Z,62.03
2018-07-10T00:36:24.268Z,61.42
2018-07-10T00:39:02.168Z,61.58
2018-07-10T00:41:34.431Z,60.81
2018-07-10T00:44:05.064Z,60.84
2018-07-10T00:46:36.068Z,62.07
2018-07-10T00:49:05.867Z,61.67
2018-07-10T00:51:38.234Z,61.07
2018-07-10T00:54:08.140Z,61.80
2018-07-10T00:56:38.235Z,62.06
2018-07-10T00:59:08.295Z,61.39
2018-07-10T01:01:38.074Z,61.22
2018-07-10T01:04:07.748Z,61.23
2018-07-10T01:06:37.492Z,62.30
2018-07-10T01:09:08.159Z,61.40
2018-07-10T01:11:37.884Z,61.91
2018-07-10T01:14:08.467Z,62.17
2018-07-10T01:16:39.268Z,62.50
2018-07-10T01:19:12.879Z,62.85
2018-07-10T01:21:43.611Z,62.13
2018-07-10T01:24:14.960Z,62.56
2018-07-10T01:26:44.732Z,62.35
2018-07-10T01:29:21.078Z,63.22
2018-07-10T01:31:53.712Z,63.40
2018-07-10T01:34:23.805Z,63.06
2018-07-10T01:36:54.297Z,63.38
2018-07-10T01:39:24.140Z,64.00
2018-07-10T01:41:53.916Z,64.71
2018-07-10T01:44:23.686Z,64.13
2018-07-10T01:46:53.471Z,64.22
2018-07-10T01:49:23.371Z,63.96
2018-07-10T01:51:53.182Z,63.83
2018-07-10T01:54:22.951Z,64.34
2018-07-10T01:56:52.806Z,64.34
2018-07-10T01:59:23.089Z,63.10
2018-07-10T02:01:52.902Z,63.51
2018-07-10T02:04:22.925Z,63.74
2018-07-10T02:06:53.128Z,64.98
2018-07-10T02:09:22.896Z,66.83
2018-07-10T02:11:52.681Z,67.03
2018-07-10T02:14:22.495Z,66.69
2018-07-10T02:16:52.181Z,67.04
2018-07-10T02:19:22.929Z,66.83
2018-07-10T02:21:52.857Z,66.91
2018-07-10T02:24:24.772Z,66.71
2018-07-10T02:26:54.887Z,66.53
2018-07-10T02:29:24.664Z,67.03
2018-07-10T02:31:54.425Z,66.99
2018-07-10T02:34:24.180Z,66.81
2018-07-10T02:36:53.964Z,66.67
2018-07-10T02:39:23.989Z,67.62
2018-07-10T02:41:54.170Z,68.02
2018-07-10T02:44:23.985Z,68.95
2018-07-10T02:46:53.744Z,69.78
2018-07-10T02:49:24.086Z,71.85
2018-07-10T02:51:57.349Z,72.22
2018-07-10T02:54:28.582Z,72.51
2018-07-10T02:56:58.807Z,72.11
2018-07-10T02:59:32.968Z,72.77
2018-07-10T03:02:02.776Z,72.06
2018-07-10T03:04:34.186Z,73.68
2018-07-10T03:07:04.208Z,73.03
2018-07-10T03:09:33.989Z,72.57
2018-07-10T03:12:04.674Z,73.14
2018-07-10T03:14:34.444Z,72.07
2018-07-10T03:17:04.257Z,73.68
2018-07-10T03:19:34.024Z,73.32
2018-07-10T03:22:03.823Z,73.47
2018-07-10T03:24:33.661Z,73.45
2018-07-10T03:27:03.397Z,73.16
2018-07-10T03:29:33.211Z,74.42
2018-07-10T03:32:02.933Z,74.45
2018-07-10T03:34:32.708Z,75.36
2018-07-10T03:37:02.437Z,75.11
2018-07-10T03:39:32.280Z,75.70
2018-07-10T03:42:02.048Z,74.72
2018-07-10T03:44:31.935Z,74.35
2018-07-10T03:47:02.090Z,74.08
2018-07-10T03:49:31.904Z,74.50
2018-07-10T03:52:03.692Z,74.45
2018-07-10T03:54:34.178Z,72.92
2018-07-10T03:57:06.044Z,73.35
2018-07-10T03:59:43.147Z,74.25
2018-07-10T04:02:12.987Z,72.49
2018-07-10T04:04:43.036Z,73.38
2018-07-10T04:07:12.884Z,73.11
2018-07-10T04:09:42.671Z,73.13
2018-07-10T04:12:12.820Z,73.31
2018-07-10T04:14:44.536Z,74.34
2018-07-10T04:17:14.829Z,73.88
2018-07-10T04:19:45.246Z,73.52
2018-07-10T04:22:17.283Z,72.94
2018-07-10T04:24:47.218Z,73.67
2018-07-10T04:27:31.067Z,73.82
2018-07-10T04:30:12.668Z,73.35
2018-07-10T04:32:43.013Z,73.45
2018-07-10T04:35:14.428Z,73.22
2018-07-10T04:37:47.637Z,72.92
2018-07-10T04:40:18.335Z,72.32
2018-07-10T04:42:57.328Z,71.85
2018-07-10T04:45:34.892Z,72.33
2018-07-10T04:48:04.736Z,70.85
2018-07-10T04:50:44.891Z,70.54
2018-07-10T04:53:50.749Z,70.27
2018-07-10T04:56:21.151Z,69.69
2018-07-10T04:58:55.871Z,70.62
2018-07-10T05:01:30.764Z,70.68
2018-07-10T05:04:02.220Z,71.47
2018-07-10T05:06:35.183Z,70.52
2018-07-10T05:09:05.882Z,70.95
2018-07-10T05:11:38.876Z,70.47
2018-07-10T05:14:08.689Z,69.52
2018-07-10T05:16:38.484Z,70.08
2018-07-10T05:19:08.318Z,69.45
2018-07-10T05:21:38.081Z,69.83
2018-07-10T05:24:07.855Z,69.35
2018-07-10T05:26:37.670Z,68.77
2018-07-10T05:29:07.486Z,68.93
2018-07-10T05:31:38.236Z,69.04
2018-07-10T05:34:08.099Z,68.84
2018-07-10T05:36:37.883Z,68.04
2018-07-10T05:39:09.100Z,67.33
2018-07-10T05:41:42.475Z,65.62
2018-07-10T05:44:12.439Z,65.53
2018-07-10T05:46:42.258Z,65.86
2018-07-10T05:49:12.105Z,65.01
2018-07-10T05:51:48.298Z,64.77
2018-07-10T05:54:18.192Z,65.22
2018-07-10T05:56:47.946Z,65.50
2018-07-10T05:59:17.681Z,65.48
2018-07-10T06:01:47.461Z,65.61
2018-07-10T06:04:18.276Z,66.37
2018-07-10T06:06:48.526Z,66.34
2018-07-10T06:09:19.011Z,66.15
2018-07-10T06:11:48.792Z,66.09
2018-07-10T06:14:18.534Z,65.62
2018-07-10T06:16:48.573Z,66.74
2018-07-10T06:19:18.386Z,66.83
2018-07-10T06:21:50.654Z,66.08
2018-07-10T06:24:24.880Z,66.06
2018-07-10T06:26:58.244Z,66.39
2018-07-10T06:29:31.314Z,66.36
2018-07-10T06:32:02.643Z,66.20
2018-07-10T06:34:36.856Z,66.52
2018-07-10T06:37:08.805Z,65.72
2018-07-10T06:39:38.941Z,67.24
2018-07-10T06:42:15.696Z,67.57
2018-07-10T06:44:49.756Z,67.31
2018-07-10T06:47:26.532Z,67.81
2018-07-10T06:49:56.544Z,66.34
2018-07-10T06:52:26.457Z,66.67
2018-07-10T06:55:07.281Z,66.08
2018-07-10T06:57:57.003Z,66.19
2018-07-10T07:00:26.877Z,65.48
2018-07-10T07:02:56.724Z,66.54
2018-07-10T07:05:26.437Z,65.95
2018-07-10T07:07:56.285Z,66.24
2018-07-10T07:10:26.519Z,67.04
2018-07-10T07:12:56.285Z,67.24
2018-07-10T07:15:26.080Z,67.38
2018-07-10T07:17:55.796Z,67.45
2018-07-10T07:20:25.535Z,68.03
2018-07-10T07:22:55.248Z,68.81
2018-07-10T07:25:25.068Z,69.55
2018-07-10T07:27:54.825Z,70.55
2018-07-10T07:30:24.591Z,71.33
2018-07-10T07:32:54.357Z,71.27
2018-07-10T07:35:24.374Z,71.47
2018-07-10T07:37:54.304Z,71.11
2018-07-10T07:40:23.996Z,71.73
2018-07-10T07:42:53.761Z,72.06
2018-07-10T07:45:23.535Z,73.83
2018-07-10T07:47:53.875Z,74.09
2018-07-10T07:50:23.611Z,75.31
2018-07-10T07:52:53.444Z,75.88
2018-07-10T07:55:23.243Z,75.10
2018-07-10T07:57:52.991Z,75.62
2018-07-10T08:00:22.795Z,75.66
2018-07-10T08:02:52.572Z,76.54
2018-07-10T08:05:22.343Z,77.66
2018-07-10T08:07:52.092Z,77.31
2018-07-10T08:10:21.911Z,77.96
2018-07-10T08:12:51.732Z,76.42
2018-07-10T08:15:21.637Z,76.83
2018-07-10T08:17:51.412Z,76.75
2018-07-10T08:20:21.224Z,76.37
2018-07-10T08:22:51.023Z,77.05
2018-07-10T08:25:22.177Z,78.40
2018-07-10T08:27:51.968Z,76.82
2018-07-10T08:30:21.768Z,77.48
2018-07-10T08:32:52.607Z,75.87
2018-07-10T08:35:22.360Z,77.29
2018-07-10T08:37:52.389Z,76.80
2018-07-10T08:40:22.162Z,77.71
2018-07-10T08:42:51.956Z,78.66
2018-07-10T08:45:22.138Z,77.79
2018-07-10T08:47:51.925Z,77.41
2018-07-10T08:50:21.688Z,78.03
2018-07-10T08:52:51.556Z,77.22
2018-07-10T08:55:21.320Z,78.53
2018-07-10T08:57:52.088Z,77.38
2018-07-10T09:00:21.907Z,78.45
2018-07-10T09:02:51.700Z,77.22
2018-07-10T09:05:21.760Z,76.70
2018-07-10T09:07:51.498Z,79.18
2018-07-10T09:10:21.327Z,78.50
2018-07-10T09:12:51.044Z,80.12
2018-07-10T09:15:20.844Z,78.92
2018-07-10T09:17:50.603Z,79.05
2018-07-10T09:20:26.680Z,78.37
2018-07-10T09:22:56.524Z,77.61
2018-07-10T09:25:26.301Z,77.63
2018-07-10T09:27:56.224Z,77.30
2018-07-10T09:30:26.041Z,75.48
2018-07-10T09:32:55.807Z,75.60
2018-07-10T09:35:25.631Z,76.20
2018-07-10T09:37:55.416Z,75.84
2018-07-10T09:40:25.348Z,75.60
2018-07-10T09:42:57.876Z,75.79
2018-07-10T09:45:34.375Z,76.86
2018-07-10T09:48:05.080Z,76.79
2018-07-10T09:50:35.095Z,76.82
2018-07-10T09:53:04.957Z,76.49
2018-07-10T09:55:34.780Z,75.82
2018-07-10T09:58:04.548Z,76.82
2018-07-10T10:00:39.959Z,77.95
2018-07-10T10:03:10.033Z,77.30
2018-07-10T10:05:42.896Z,77.04
2018-07-10T10:08:12.996Z,77.99
2018-07-10T10:10:42.864Z,78.23
2018-07-10T10:13:12.611Z,78.01
2018-07-10T10:15:43.184Z,78.25
2018-07-10T10:18:13.256Z,78.18
2018-07-10T10:20:43.380Z,79.43
2018-07-10T10:23:14.380Z,78.93
2018-07-10T10:25:48.409Z,78.97
2018-07-10T10:28:19.144Z,78.73
2018-07-10T10:30:48.891Z,79.50
2018-07-10T10:33:18.700Z,78.88
2018-07-10T10:35:48.561Z,78.29
2018-07-10T10:38:19.068Z,78.98
2018-07-10T10:40:49.680Z,79.58
2018-07-10T10:43:19.444Z,79.04
2018-07-10T10:45:49.311Z,81.50
2018-07-10T10:48:19.151Z,80.18
2018-07-10T10:50:50.700Z,80.73
2018-07-10T10:53:21.167Z,80.17
2018-07-10T10:55:50.984Z,79.78
2018-07-10T10:58:21.840Z,81.39
2018-07-10T11:00:51.772Z,80.77
2018-07-10T11:03:21.588Z,78.86
2018-07-10T11:05:51.440Z,79.50
2018-07-10T11:08:21.868Z,79.54
2018-07-10T11:10:52.316Z,79.66
2018-07-10T11:13:22.410Z,80.30
2018-07-10T11:15:52.505Z,80.52
2018-07-10T11:19:17.558Z,80.85
2018-07-10T11:21:54.383Z,80.34
2018-07-10T11:24:24.178Z,80.47
2018-07-10T11:26:53.961Z,80.90
2018-07-10T11:29:23.805Z,80.95
2018-07-10T11:31:53.552Z,80.60
2018-07-10T11:34:23.503Z,80.54
2018-07-10T11:36:53.299Z,79.77
2018-07-10T11:39:23.303Z,80.46
2018-07-10T11:41:54.080Z,81.01
2018-07-10T11:44:23.904Z,79.18
2018-07-10T11:46:53.689Z,79.81
2018-07-10T11:49:23.536Z,79.90
2018-07-10T11:51:53.296Z,79.83
2018-07-10T11:54:23.111Z,80.23
2018-07-10T11:56:52.872Z,80.06
2018-07-10T11:59:22.695Z,79.88
2018-07-10T12:01:52.519Z,79.81
2018-07-10T12:04:22.323Z,80.35
2018-07-10T12:06:53.343Z,80.41
2018-07-10T12:09:23.072Z,81.19
2018-07-10T12:11:52.891Z,81.15
2018-07-10T12:14:22.607Z,80.99
2018-07-10T12:16:52.421Z,80.64
2018-07-10T12:19:22.203Z,80.21
2018-07-10T12:21:51.988Z,80.99
2018-07-10T12:24:21.826Z,81.51
2018-07-10T12:26:51.597Z,80.20
2018-07-10T12:29:21.441Z,80.17
2018-07-10T12:31:51.244Z,79.89
2018-07-10T12:34:21.055Z,80.86
2018-07-10T12:36:50.841Z,80.78
2018-07-10T12:39:20.604Z,80.34
2018-07-10T12:41:50.405Z,80.40
2018-07-10T12:44:20.197Z,80.53
2018-07-10T12:46:49.961Z,80.52
2018-07-10T12:49:19.872Z,80.64
2018-07-10T12:51:49.897Z,79.11
2018-07-10T12:54:19.717Z,79.44
2018-07-10T12:56:49.475Z,79.41
2018-07-10T12:59:19.303Z,79.45
2018-07-10T13:01:49.103Z,79.25
2018-07-10T13:04:19.517Z,78.53
2018-07-10T13:06:49.292Z,79.42
2018-07-10T13:09:19.103Z,79.06
2018-07-10T13:11:48.972Z,80.19
2018-07-10T13:14:18.743Z,79.37
2018-07-10T13:16:48.500Z,80.01
2018-07-10T13:19:19.645Z,79.92
2018-07-10T13:21:49.419Z,78.62
2018-07-10T13:24:19.216Z,79.98
2018-07-10T13:26:48.988Z,78.24
2018-07-10T13:29:18.846Z,79.48
2018-07-10T13:31:48.646Z,77.20
2018-07-10T13:34:18.412Z,78.69
2018-07-10T13:36:48.120Z,79.69
2018-07-10T13:39:17.923Z,78.67
2018-07-10T13:41:47.688Z,78.68
2018-07-10T13:44:17.440Z,78.98
2018-07-10T13:46:47.191Z,79.50
2018-07-10T13:49:16.945Z,76.76
2018-07-10T13:51:46.872Z,75.69
2018-07-10T13:54:16.605Z,76.61
2018-07-10T13:56:46.430Z,74.91
2018-07-10T13:59:16.851Z,75.43
2018-07-10T14:01:46.624Z,74.73
2018-07-10T14:04:16.397Z,74.39
2018-07-10T14:06:46.342Z,76.08
2018-07-10T14:09:16.020Z,74.61
2018-07-10T14:11:45.671Z,73.97
2018-07-10T14:14:15.457Z,75.34
2018-07-10T14:16:45.212Z,75.38
2018-07-10T14:19:15.960Z,75.62
2018-07-10T14:21:46.204Z,76.37
2018-07-10T14:24:15.940Z,75.83
2018-07-10T14:26:45.664Z,76.92
2018-07-10T14:29:15.421Z,76.95
2018-07-10T14:31:45.156Z,77.44
2018-07-10T14:34:14.878Z,77.49
2018-07-10T14:36:44.685Z,78.23
2018-07-10T14:39:14.452Z,78.41
2018-07-10T14:41:44.283Z,77.24
2018-07-10T14:44:14.148Z,78.10
2018-07-10T14:46:43.817Z,78.87
2018-07-10T14:49:13.632Z,78.29
2018-07-10T14:51:46.193Z,77.95
2018-07-10T14:54:15.992Z,78.71
2018-07-10T14:56:45.773Z,78.59
2018-07-10T14:59:16.261Z,78.60
2018-07-10T15:01:46.026Z,79.50
2018-07-10T15:04:15.707Z,78.85
2018-07-10T15:06:45.457Z,77.31
2018-07-10T15:09:15.995Z,77.91
2018-07-10T15:11:45.673Z,78.30
2018-07-10T15:14:15.318Z,77.66
2018-07-10T15:16:50.129Z,77.77
2018-07-10T15:19:19.951Z,77.57
2018-07-10T15:21:49.728Z,79.69
2018-07-10T15:24:19.423Z,78.97
2018-07-10T15:26:49.183Z,79.24
2018-07-10T15:29:24.016Z,78.19
2018-07-10T15:31:53.768Z,79.83
2018-07-10T15:34:23.464Z,79.03
2018-07-10T15:36:53.330Z,77.92
2018-07-10T15:39:23.336Z,78.61
2018-07-10T15:41:53.992Z,79.13
2018-07-10T15:44:23.738Z,80.37
2018-07-10T15:46:54.573Z,80.14
2018-07-10T15:49:24.315Z,81.43
2018-07-10T15:51:54.648Z,81.38
2018-07-10T15:54:24.420Z,80.74
2018-07-10T15:56:54.274Z,80.94
2018-07-10T15:59:24.005Z,79.56
2018-07-10T16:01:53.804Z,80.52
2018-07-10T16:04:23.639Z,81.12
2018-07-10T16:06:54.597Z,80.68
2018-07-10T16:09:24.415Z,81.24
2018-07-10T16:12:01.146Z,80.51
2018-07-10T16:14:31.309Z,79.38
2018-07-10T16:17:03.395Z,79.25
2018-07-10T16:19:44.698Z,79.83
2018-07-10T16:22:24.022Z,79.56
2018-07-10T16:24:55.654Z,81.21
2018-07-10T16:27:37.789Z,80.06
2018-07-10T16:30:07.613Z,78.88
2018-07-10T16:32:38.856Z,79.35
2018-07-10T16:35:08.978Z,78.69
2018-07-10T16:37:38.743Z,79.07
2018-07-10T16:40:09.212Z,80.13
2018-07-10T16:42:44.219Z,80.09
2018-07-10T16:45:33.946Z,79.14
2018-07-10T16:48:20.149Z,78.98
2018-07-10T16:51:57.106Z,78.28
2018-07-10T16:54:26.888Z,78.90
2018-07-10T16:56:56.659Z,79.26
2018-07-10T16:59:27.431Z,77.74
2018-07-10T17:01:57.239Z,78.29
2018-07-10T17:04:27.116Z,79.20
2018-07-10T17:06:56.876Z,79.02
2018-07-10T17:09:26.640Z,78.84
2018-07-10T17:11:56.624Z,78.94
2018-07-10T17:14:26.655Z,78.63
2018-07-10T17:16:56.412Z,79.49
2018-07-10T17:19:26.267Z,78.64
2018-07-10T17:21:56.442Z,79.31
2018-07-10T17:24:26.221Z,78.44
2018-07-10T17:26:55.976Z,79.34
2018-07-10T17:29:25.743Z,79.77
2018-07-10T17:31:55.540Z,79.04
2018-07-10T17:34:25.267Z,78.67
2018-07-10T17:36:55.054Z,79.43
2018-07-10T17:39:24.830Z,80.21
2018-07-10T17:41:54.760Z,79.19
2018-07-10T17:44:24.510Z,78.87
2018-07-10T17:46:54.280Z,79.00
2018-07-10T17:49:24.096Z,78.00
2018-07-10T17:51:53.921Z,78.14
2018-07-10T17:54:23.723Z,78.90
2018-07-10T17:56:53.592Z,78.71
2018-07-10T17:59:23.350Z,77.04
2018-07-10T18:01:53.196Z,77.66
2018-07-10T18:04:22.944Z,77.19
2018-07-10T18:06:52.947Z,78.08
2018-07-10T18:09:22.927Z,78.66
2018-07-10T18:11:52.658Z,78.73
2018-07-10T18:14:22.452Z,78.37
2018-07-10T18:16:52.220Z,77.16
2018-07-10T18:19:21.996Z,76.99
2018-07-10T18:21:51.780Z,77.51
2018-07-10T18:24:21.488Z,78.47
2018-07-10T18:26:51.603Z,78.37
2018-07-10T18:29:21.299Z,78.39
2018-07-10T18:31:51.013Z,77.91
2018-07-10T18:34:21.082Z,78.00
2018-07-10T18:36:50.777Z,78.65
2018-07-10T18:39:20.520Z,77.67
2018-07-10T18:41:50.284Z,78.07
2018-07-10T18:44:20.104Z,78.68
2018-07-10T18:46:49.910Z,78.86
2018-07-10T18:49:20.596Z,78.99
2018-07-10T18:51:51.403Z,79.46
2018-07-10T18:54:31.009Z,79.12
2018-07-10T18:57:00.840Z,78.89
2018-07-10T18:59:33.896Z,79.30
2018-07-10T19:02:07.756Z,79.05
2018-07-10T19:05:04.075Z,79.06
2018-07-10T19:07:35.988Z,79.17
2018-07-10T19:10:05.862Z,81.17
2018-07-10T19:12:35.910Z,80.61
2018-07-10T19:15:12.219Z,79.77
2018-07-10T19:17:41.992Z,79.86
2018-07-10T19:20:12.649Z,79.44
2018-07-10T19:22:53.156Z,79.16
2018-07-10T19:25:23.531Z,79.43
2018-07-10T19:27:54.662Z,79.77
2018-07-10T19:31:30.158Z,79.36
2018-07-10T19:33:59.915Z,79.73
2018-07-10T19:36:29.708Z,79.95
2018-07-10T19:39:00.597Z,80.13
2018-07-10T19:41:30.859Z,80.15
2018-07-10T19:44:00.655Z,79.95
2018-07-10T19:46:32.661Z,79.92
2018-07-10T19:49:02.974Z,79.88
2018-07-10T19:51:32.775Z,80.22
2018-07-10T19:54:06.882Z,80.10
2018-07-10T19:56:38.299Z,80.64
2018-07-10T19:59:08.935Z,79.99
2018-07-10T20:02:02.070Z,80.53
2018-07-10T20:05:10.775Z,80.31
2018-07-10T20:07:44.293Z,80.21
2018-07-10T20:10:24.323Z,79.61
2018-07-10T20:13:05.745Z,80.31
2018-07-10T20:16:19.621Z,80.43
2018-07-10T20:19:59.988Z,80.15
2018-07-10T20:22:34.915Z,80.27
2018-07-10T20:26:10.483Z,80.84
2018-07-10T20:28:57.913Z,81.20
2018-07-10T20:31:33.131Z,80.61
2018-07-10T20:34:07.323Z,80.38
2018-07-10T20:36:37.657Z,80.99
2018-07-10T20:39:07.831Z,81.19
2018-07-10T20:41:43.671Z,80.92
2018-07-10T20:44:15.559Z,81.19
2018-07-10T20:46:50.448Z,81.34
2018-07-10T20:49:29.746Z,81.17
2018-07-10T20:52:07.203Z,83.05
2018-07-10T20:54:44.020Z,82.49
2018-07-10T20:57:22.340Z,82.49
2018-07-10T20:59:57.523Z,83.13
2018-07-10T21:02:35.748Z,83.59
2018-07-10T21:05:10.279Z,83.25
2018-07-10T21:07:59.773Z,82.50
2018-07-10T21:10:47.659Z,82.50
2018-07-10T21:13:54.915Z,83.90
2018-07-10T21:16:32.261Z,83.04
2018-07-10T21:19:13.865Z,82.45
2018-07-10T21:22:03.470Z,81.96
2018-07-10T21:24:49.128Z,81.19
2018-07-10T21:27:26.628Z,81.19
2018-07-10T21:30:02.146Z,81.49
2018-07-10T21:32:40.311Z,83.01
2018-07-10T21:35:10.680Z,84.60
2018-07-10T21:40:01.825Z,84.49
2018-07-10T21:42:46.324Z,84.26
2018-07-10T21:46:28.989Z,83.64
2018-07-10T21:50:08.624Z,83.12
2018-07-10T21:52:38.376Z,83.48
2018-07-10T21:55:08.162Z,83.32
2018-07-10T21:57:41.200Z,82.27
2018-07-10T22:00:10.964Z,82.47
2018-07-10T22:02:40.761Z,83.24
2018-07-10T22:05:10.776Z,83.91
2018-07-10T22:07:40.560Z,82.97
2018-07-10T22:10:10.425Z,82.78
2018-07-10T22:12:44.344Z,82.24
2018-07-10T22:15:14.169Z,83.03
2018-07-10T22:17:44.621Z,83.25
2018-07-10T22:20:14.451Z,82.74
2018-07-10T22:22:44.220Z,82.22
2018-07-10T22:25:14.067Z,82.49
2018-07-10T22:27:44.031Z,82.72
2018-07-10T22:30:21.316Z,82.25
2018-07-10T22:32:57.601Z,82.78
2018-07-10T22:35:27.411Z,82.68
2018-07-10T22:37:57.219Z,83.37
2018-07-10T22:40:27.065Z,82.80
2018-07-10T22:42:56.868Z,83.16
2018-07-10T22:45:28.011Z,83.53
2018-07-10T22:47:57.796Z,83.79
2018-07-10T22:50:28.552Z,83.97
2018-07-10T22:53:00.380Z,84.59
2018-07-10T22:55:31.930Z,83.65
2018-07-10T22:58:05.053Z,83.25
2018-07-10T23:00:40.142Z,83.70
2018-07-10T23:03:18.404Z,83.21
2018-07-10T23:05:49.916Z,83.27
2018-07-10T23:08:30.116Z,83.07
2018-07-10T23:11:00.812Z,82.65
2018-07-10T23:13:30.600Z,83.19
2018-07-10T23:16:00.517Z,83.31
2018-07-10T23:18:30.360Z,83.44
2018-07-10T23:21:00.228Z,82.97
2018-07-10T23:23:30.015Z,83.88
2018-07-10T23:25:59.813Z,83.24
2018-07-10T23:28:30.876Z,83.66
2018-07-10T23:31:00.769Z,83.01
2018-07-10T23:33:30.634Z,82.91
2018-07-10T23:36:01.804Z,83.07
2018-07-10T23:40:06.472Z,84.34
2018-07-10T23:42:36.701Z,84.18
2018-07-10T23:45:14.608Z,83.89
2018-07-10T23:47:47.924Z,83.81
2018-07-10T23:50:34.093Z,83.01
2018-07-10T23:53:47.563Z,83.78
2018-07-10T23:56:17.844Z,83.75
2018-07-10T23:58:48.232Z,82.99
